sensor_id;sensor_type;location;lat;lon;timestamp;P1;durP1;ratioP1;P2;durP2;ratioP2
35150;SDS011;55720;51.972;4.624;2022-10-16T00:00:39;2.63;;;0.73;;
35150;SDS011;55720;51.972;4.624;2022-10-16T00:03:06;2.05;;;0.82;;
35150;SDS011;55720;51.972;4.624;2022-10-16T00:05:32;3.10;;;0.77;;
35150;SDS011;55720;51.972;4.624;2022-10-16T00:08:02;3.30;;;0.90;;
35150;SDS011;55720;51.972;4.624;2022-10-16T00:10:28;3.83;;;1.00;;
35150;SDS011;55720;51.972;4.624;2022-10-16T00:12:53;0.75;;;0.73;;
35150;SDS011;55720;51.972;4.624;2022-10-16T00:15:19;1.73;;;1.13;;
35150;SDS011;55720;51.972;4.624;2022-10-16T00:17:44;2.40;;;1.02;;
35150;SDS011;55720;51.972;4.624;2022-10-16T00:20:10;1.98;;;1.00;;
35150;SDS011;55720;51.972;4.624;2022-10-16T00:22:35;1.48;;;0.90;;
35150;SDS011;55720;51.972;4.624;2022-10-16T00:25:00;1.85;;;0.80;;
35150;SDS011;55720;51.972;4.624;2022-10-16T00:27:26;4.78;;;1.35;;
35150;SDS011;55720;51.972;4.624;2022-10-16T00:29:51;1.88;;;1.00;;
35150;SDS011;55720;51.972;4.624;2022-10-16T00:32:20;2.33;;;0.60;;
35150;SDS011;55720;51.972;4.624;2022-10-16T00:34:46;2.47;;;0.70;;
35150;SDS011;55720;51.972;4.624;2022-10-16T00:37:11;1.33;;;0.70;;
35150;SDS011;55720;51.972;4.624;2022-10-16T00:39:37;1.17;;;0.60;;
35150;SDS011;55720;51.972;4.624;2022-10-16T00:42:03;2.35;;;1.02;;
35150;SDS011;55720;51.972;4.624;2022-10-16T00:44:45;2.15;;;0.70;;
35150;SDS011;55720;51.972;4.624;2022-10-16T00:47:12;4.10;;;0.70;;
35150;SDS011;55720;51.972;4.624;2022-10-16T00:49:45;0.90;;;0.80;;
35150;SDS011;55720;51.972;4.624;2022-10-16T00:52:11;1.83;;;0.80;;
35150;SDS011;55720;51.972;4.624;2022-10-16T00:54:37;1.55;;;1.00;;
35150;SDS011;55720;51.972;4.624;2022-10-16T00:57:04;2.38;;;1.00;;
35150;SDS011;55720;51.972;4.624;2022-10-16T00:59:40;2.22;;;1.08;;
35150;SDS011;55720;51.972;4.624;2022-10-16T01:02:10;2.42;;;1.23;;
35150;SDS011;55720;51.972;4.624;2022-10-16T01:04:40;1.58;;;0.90;;
35150;SDS011;55720;51.972;4.624;2022-10-16T01:13:04;2.30;;;0.90;;
35150;SDS011;55720;51.972;4.624;2022-10-16T01:18:24;2.03;;;0.80;;
35150;SDS011;55720;51.972;4.624;2022-10-16T01:21:05;0.90;;;0.77;;
35150;SDS011;55720;51.972;4.624;2022-10-16T01:31:59;4.57;;;0.95;;
35150;SDS011;55720;51.972;4.624;2022-10-16T01:34:46;3.72;;;1.17;;
35150;SDS011;55720;51.972;4.624;2022-10-16T01:37:23;3.13;;;1.08;;
35150;SDS011;55720;51.972;4.624;2022-10-16T01:39:55;1.10;;;0.90;;
35150;SDS011;55720;51.972;4.624;2022-10-16T01:42:27;1.05;;;0.90;;
35150;SDS011;55720;51.972;4.624;2022-10-16T01:44:59;2.17;;;1.15;;
35150;SDS011;55720;51.972;4.624;2022-10-16T01:47:27;1.08;;;0.98;;
35150;SDS011;55720;51.972;4.624;2022-10-16T01:49:55;1.75;;;1.00;;
35150;SDS011;55720;51.972;4.624;2022-10-16T01:52:23;2.10;;;1.10;;
35150;SDS011;55720;51.972;4.624;2022-10-16T01:54:52;5.40;;;1.10;;
35150;SDS011;55720;51.972;4.624;2022-10-16T01:57:21;4.22;;;1.13;;
35150;SDS011;55720;51.972;4.624;2022-10-16T01:59:50;2.30;;;1.40;;
35150;SDS011;55720;51.972;4.624;2022-10-16T02:02:20;4.72;;;1.20;;
35150;SDS011;55720;51.972;4.624;2022-10-16T02:04:53;1.92;;;1.20;;
35150;SDS011;55720;51.972;4.624;2022-10-16T02:07:23;1.85;;;1.58;;
35150;SDS011;55720;51.972;4.624;2022-10-16T02:09:48;2.85;;;1.20;;
35150;SDS011;55720;51.972;4.624;2022-10-16T02:12:36;3.08;;;1.27;;
35150;SDS011;55720;51.972;4.624;2022-10-16T02:15:04;2.45;;;1.65;;
35150;SDS011;55720;51.972;4.624;2022-10-16T02:17:30;1.77;;;1.40;;
35150;SDS011;55720;51.972;4.624;2022-10-16T02:19:55;2.20;;;1.00;;
35150;SDS011;55720;51.972;4.624;2022-10-16T02:22:42;3.33;;;1.52;;
35150;SDS011;55720;51.972;4.624;2022-10-16T02:25:19;4.65;;;1.63;;
35150;SDS011;55720;51.972;4.624;2022-10-16T02:30:56;6.60;;;1.63;;
35150;SDS011;55720;51.972;4.624;2022-10-16T02:33:25;2.92;;;1.40;;
35150;SDS011;55720;51.972;4.624;2022-10-16T02:35:52;4.85;;;1.50;;
35150;SDS011;55720;51.972;4.624;2022-10-16T02:38:19;1.30;;;1.20;;
35150;SDS011;55720;51.972;4.624;2022-10-16T02:40:46;1.67;;;1.27;;
35150;SDS011;55720;51.972;4.624;2022-10-16T02:43:12;4.35;;;1.90;;
35150;SDS011;55720;51.972;4.624;2022-10-16T02:45:38;1.83;;;1.33;;
35150;SDS011;55720;51.972;4.624;2022-10-16T02:48:03;2.33;;;1.23;;
35150;SDS011;55720;51.972;4.624;2022-10-16T02:50:29;2.17;;;1.58;;
35150;SDS011;55720;51.972;4.624;2022-10-16T02:52:54;2.20;;;1.30;;
35150;SDS011;55720;51.972;4.624;2022-10-16T02:55:20;1.67;;;1.30;;
35150;SDS011;55720;51.972;4.624;2022-10-16T02:57:45;3.47;;;1.13;;
35150;SDS011;55720;51.972;4.624;2022-10-16T03:00:11;4.25;;;1.17;;
35150;SDS011;55720;51.972;4.624;2022-10-16T03:02:39;2.92;;;1.67;;
35150;SDS011;55720;51.972;4.624;2022-10-16T03:05:04;2.65;;;1.30;;
35150;SDS011;55720;51.972;4.624;2022-10-16T03:07:30;2.70;;;1.17;;
35150;SDS011;55720;51.972;4.624;2022-10-16T03:09:56;7.50;;;1.80;;
35150;SDS011;55720;51.972;4.624;2022-10-16T03:12:21;2.42;;;1.52;;
35150;SDS011;55720;51.972;4.624;2022-10-16T03:14:47;1.77;;;1.25;;
35150;SDS011;55720;51.972;4.624;2022-10-16T03:17:12;3.78;;;1.60;;
35150;SDS011;55720;51.972;4.624;2022-10-16T03:19:38;1.85;;;1.30;;
35150;SDS011;55720;51.972;4.624;2022-10-16T03:22:04;5.18;;;1.60;;
35150;SDS011;55720;51.972;4.624;2022-10-16T03:24:30;3.83;;;1.10;;
35150;SDS011;55720;51.972;4.624;2022-10-16T03:26:55;4.38;;;1.40;;
35150;SDS011;55720;51.972;4.624;2022-10-16T03:29:20;2.95;;;1.50;;
35150;SDS011;55720;51.972;4.624;2022-10-16T03:31:45;3.10;;;1.02;;
35150;SDS011;55720;51.972;4.624;2022-10-16T03:34:13;2.80;;;1.20;;
35150;SDS011;55720;51.972;4.624;2022-10-16T03:36:38;2.83;;;1.30;;
35150;SDS011;55720;51.972;4.624;2022-10-16T03:39:04;4.30;;;1.10;;
35150;SDS011;55720;51.972;4.624;2022-10-16T03:41:29;1.38;;;1.00;;
35150;SDS011;55720;51.972;4.624;2022-10-16T03:43:54;1.95;;;1.00;;
35150;SDS011;55720;51.972;4.624;2022-10-16T03:46:20;2.55;;;0.95;;
35150;SDS011;55720;51.972;4.624;2022-10-16T03:48:45;2.83;;;0.80;;
35150;SDS011;55720;51.972;4.624;2022-10-16T03:51:10;3.67;;;1.10;;
35150;SDS011;55720;51.972;4.624;2022-10-16T03:53:36;2.00;;;1.17;;
35150;SDS011;55720;51.972;4.624;2022-10-16T03:56:01;2.10;;;1.10;;
35150;SDS011;55720;51.972;4.624;2022-10-16T03:58:26;4.82;;;1.00;;
35150;SDS011;55720;51.972;4.624;2022-10-16T04:00:52;3.13;;;1.20;;
35150;SDS011;55720;51.972;4.624;2022-10-16T04:03:17;1.33;;;1.00;;
35150;SDS011;55720;51.972;4.624;2022-10-16T04:05:44;3.17;;;0.88;;
35150;SDS011;55720;51.972;4.624;2022-10-16T04:08:09;1.25;;;1.00;;
35150;SDS011;55720;51.972;4.624;2022-10-16T04:10:34;2.47;;;0.90;;
35150;SDS011;55720;51.972;4.624;2022-10-16T04:13:00;8.52;;;1.20;;
35150;SDS011;55720;51.972;4.624;2022-10-16T04:15:25;2.00;;;1.10;;
35150;SDS011;55720;51.972;4.624;2022-10-16T04:17:51;2.88;;;0.98;;
35150;SDS011;55720;51.972;4.624;2022-10-16T04:20:17;4.65;;;1.75;;
35150;SDS011;55720;51.972;4.624;2022-10-16T04:22:42;1.33;;;0.93;;
35150;SDS011;55720;51.972;4.624;2022-10-16T04:25:08;3.75;;;1.40;;
35150;SDS011;55720;51.972;4.624;2022-10-16T04:27:34;4.97;;;1.25;;
35150;SDS011;55720;51.972;4.624;2022-10-16T04:29:59;3.85;;;1.27;;
35150;SDS011;55720;51.972;4.624;2022-10-16T04:32:25;3.20;;;1.40;;
35150;SDS011;55720;51.972;4.624;2022-10-16T04:34:50;4.28;;;1.10;;
35150;SDS011;55720;51.972;4.624;2022-10-16T04:37:16;4.03;;;1.30;;
35150;SDS011;55720;51.972;4.624;2022-10-16T04:39:41;2.33;;;1.20;;
35150;SDS011;55720;51.972;4.624;2022-10-16T04:42:06;1.95;;;1.10;;
35150;SDS011;55720;51.972;4.624;2022-10-16T04:44:32;5.53;;;1.85;;
35150;SDS011;55720;51.972;4.624;2022-10-16T04:46:57;7.85;;;1.70;;
35150;SDS011;55720;51.972;4.624;2022-10-16T04:49:22;1.58;;;1.08;;
35150;SDS011;55720;51.972;4.624;2022-10-16T04:51:48;2.50;;;1.13;;
35150;SDS011;55720;51.972;4.624;2022-10-16T04:54:13;5.32;;;1.55;;
35150;SDS011;55720;51.972;4.624;2022-10-16T04:56:38;2.13;;;1.00;;
35150;SDS011;55720;51.972;4.624;2022-10-16T04:59:15;3.17;;;1.10;;
35150;SDS011;55720;51.972;4.624;2022-10-16T05:01:40;4.53;;;1.63;;
35150;SDS011;55720;51.972;4.624;2022-10-16T05:04:05;2.63;;;1.40;;
35150;SDS011;55720;51.972;4.624;2022-10-16T05:06:31;1.63;;;1.08;;
35150;SDS011;55720;51.972;4.624;2022-10-16T05:08:56;3.58;;;1.20;;
35150;SDS011;55720;51.972;4.624;2022-10-16T05:11:22;2.83;;;1.50;;
35150;SDS011;55720;51.972;4.624;2022-10-16T05:13:47;1.70;;;1.17;;
35150;SDS011;55720;51.972;4.624;2022-10-16T05:16:12;1.20;;;0.93;;
35150;SDS011;55720;51.972;4.624;2022-10-16T05:18:38;4.70;;;1.45;;
35150;SDS011;55720;51.972;4.624;2022-10-16T05:21:06;2.78;;;0.98;;
35150;SDS011;55720;51.972;4.624;2022-10-16T05:23:31;3.70;;;1.35;;
35150;SDS011;55720;51.972;4.624;2022-10-16T05:25:58;3.42;;;1.20;;
35150;SDS011;55720;51.972;4.624;2022-10-16T05:28:27;4.22;;;1.52;;
35150;SDS011;55720;51.972;4.624;2022-10-16T05:30:54;1.33;;;1.20;;
35150;SDS011;55720;51.972;4.624;2022-10-16T05:33:20;3.50;;;1.48;;
35150;SDS011;55720;51.972;4.624;2022-10-16T05:35:45;3.05;;;1.40;;
35150;SDS011;55720;51.972;4.624;2022-10-16T05:38:11;4.93;;;1.08;;
35150;SDS011;55720;51.972;4.624;2022-10-16T05:40:37;3.25;;;1.33;;
35150;SDS011;55720;51.972;4.624;2022-10-16T05:43:02;1.60;;;1.25;;
35150;SDS011;55720;51.972;4.624;2022-10-16T05:45:28;3.97;;;1.33;;
35150;SDS011;55720;51.972;4.624;2022-10-16T05:47:53;3.72;;;1.40;;
35150;SDS011;55720;51.972;4.624;2022-10-16T05:50:18;2.10;;;1.42;;
35150;SDS011;55720;51.972;4.624;2022-10-16T05:52:44;2.38;;;1.40;;
35150;SDS011;55720;51.972;4.624;2022-10-16T05:55:09;5.57;;;1.50;;
35150;SDS011;55720;51.972;4.624;2022-10-16T05:57:34;3.78;;;1.38;;
35150;SDS011;55720;51.972;4.624;2022-10-16T06:00:00;4.13;;;1.50;;
35150;SDS011;55720;51.972;4.624;2022-10-16T06:02:25;3.85;;;1.23;;
35150;SDS011;55720;51.972;4.624;2022-10-16T06:04:53;3.60;;;1.25;;
35150;SDS011;55720;51.972;4.624;2022-10-16T06:07:19;3.95;;;1.05;;
35150;SDS011;55720;51.972;4.624;2022-10-16T06:09:47;4.78;;;1.02;;
35150;SDS011;55720;51.972;4.624;2022-10-16T06:12:13;1.88;;;0.80;;
35150;SDS011;55720;51.972;4.624;2022-10-16T06:14:39;2.92;;;1.23;;
35150;SDS011;55720;51.972;4.624;2022-10-16T06:17:04;1.90;;;1.00;;
35150;SDS011;55720;51.972;4.624;2022-10-16T06:19:29;5.15;;;0.90;;
35150;SDS011;55720;51.972;4.624;2022-10-16T06:21:56;2.03;;;1.02;;
35150;SDS011;55720;51.972;4.624;2022-10-16T06:24:23;4.82;;;0.63;;
35150;SDS011;55720;51.972;4.624;2022-10-16T06:26:48;0.75;;;0.60;;
35150;SDS011;55720;51.972;4.624;2022-10-16T06:29:13;3.55;;;0.60;;
35150;SDS011;55720;51.972;4.624;2022-10-16T06:31:39;4.00;;;0.60;;
35150;SDS011;55720;51.972;4.624;2022-10-16T06:34:04;6.05;;;0.60;;
35150;SDS011;55720;51.972;4.624;2022-10-16T06:36:34;6.47;;;0.80;;
35150;SDS011;55720;51.972;4.624;2022-10-16T06:38:59;2.58;;;0.70;;
35150;SDS011;55720;51.972;4.624;2022-10-16T06:41:24;2.92;;;0.50;;
35150;SDS011;55720;51.972;4.624;2022-10-16T06:43:50;3.00;;;0.60;;
35150;SDS011;55720;51.972;4.624;2022-10-16T06:46:16;3.22;;;0.60;;
35150;SDS011;55720;51.972;4.624;2022-10-16T06:48:43;4.93;;;0.60;;
35150;SDS011;55720;51.972;4.624;2022-10-16T06:51:10;2.80;;;0.80;;
35150;SDS011;55720;51.972;4.624;2022-10-16T06:53:38;1.67;;;0.70;;
35150;SDS011;55720;51.972;4.624;2022-10-16T06:56:09;3.50;;;0.60;;
35150;SDS011;55720;51.972;4.624;2022-10-16T06:58:35;3.50;;;0.70;;
35150;SDS011;55720;51.972;4.624;2022-10-16T07:01:01;3.75;;;0.93;;
35150;SDS011;55720;51.972;4.624;2022-10-16T07:03:26;2.40;;;0.80;;
35150;SDS011;55720;51.972;4.624;2022-10-16T07:05:52;2.97;;;0.65;;
35150;SDS011;55720;51.972;4.624;2022-10-16T07:08:17;3.60;;;0.75;;
35150;SDS011;55720;51.972;4.624;2022-10-16T07:10:42;2.90;;;0.95;;
35150;SDS011;55720;51.972;4.624;2022-10-16T07:13:08;3.33;;;0.90;;
35150;SDS011;55720;51.972;4.624;2022-10-16T07:15:33;7.20;;;0.95;;
35150;SDS011;55720;51.972;4.624;2022-10-16T07:17:59;1.25;;;0.90;;
35150;SDS011;55720;51.972;4.624;2022-10-16T07:20:24;3.47;;;0.90;;
35150;SDS011;55720;51.972;4.624;2022-10-16T07:22:50;3.58;;;1.02;;
35150;SDS011;55720;51.972;4.624;2022-10-16T07:25:16;2.55;;;1.10;;
35150;SDS011;55720;51.972;4.624;2022-10-16T07:27:42;3.13;;;0.80;;
35150;SDS011;55720;51.972;4.624;2022-10-16T07:30:07;3.33;;;1.27;;
35150;SDS011;55720;51.972;4.624;2022-10-16T07:32:33;3.47;;;1.17;;
35150;SDS011;55720;51.972;4.624;2022-10-16T07:34:58;3.05;;;1.30;;
35150;SDS011;55720;51.972;4.624;2022-10-16T07:37:24;4.88;;;1.20;;
35150;SDS011;55720;51.972;4.624;2022-10-16T07:39:49;2.45;;;1.08;;
35150;SDS011;55720;51.972;4.624;2022-10-16T07:42:14;4.38;;;0.80;;
35150;SDS011;55720;51.972;4.624;2022-10-16T07:44:40;4.53;;;1.20;;
35150;SDS011;55720;51.972;4.624;2022-10-16T07:47:06;2.63;;;0.93;;
35150;SDS011;55720;51.972;4.624;2022-10-16T07:49:31;6.28;;;0.85;;
35150;SDS011;55720;51.972;4.624;2022-10-16T07:51:57;3.58;;;0.90;;
35150;SDS011;55720;51.972;4.624;2022-10-16T07:54:22;6.78;;;0.90;;
35150;SDS011;55720;51.972;4.624;2022-10-16T07:56:47;4.05;;;0.95;;
35150;SDS011;55720;51.972;4.624;2022-10-16T07:59:13;7.03;;;1.10;;
35150;SDS011;55720;51.972;4.624;2022-10-16T08:01:38;3.10;;;0.80;;
35150;SDS011;55720;51.972;4.624;2022-10-16T08:04:03;3.67;;;0.80;;
35150;SDS011;55720;51.972;4.624;2022-10-16T08:06:30;2.65;;;0.75;;
35150;SDS011;55720;51.972;4.624;2022-10-16T08:09:01;4.28;;;0.85;;
35150;SDS011;55720;51.972;4.624;2022-10-16T08:11:27;8.40;;;1.25;;
35150;SDS011;55720;51.972;4.624;2022-10-16T08:13:52;3.58;;;1.20;;
35150;SDS011;55720;51.972;4.624;2022-10-16T08:16:18;4.75;;;0.98;;
35150;SDS011;55720;51.972;4.624;2022-10-16T08:18:43;4.35;;;0.90;;
35150;SDS011;55720;51.972;4.624;2022-10-16T08:21:15;4.75;;;0.90;;
35150;SDS011;55720;51.972;4.624;2022-10-16T08:23:42;5.55;;;1.10;;
35150;SDS011;55720;51.972;4.624;2022-10-16T08:26:09;3.45;;;0.93;;
35150;SDS011;55720;51.972;4.624;2022-10-16T08:28:35;6.03;;;1.33;;
35150;SDS011;55720;51.972;4.624;2022-10-16T08:31:04;6.05;;;1.00;;
35150;SDS011;55720;51.972;4.624;2022-10-16T08:33:33;2.85;;;0.95;;
35150;SDS011;55720;51.972;4.624;2022-10-16T08:36:00;1.83;;;1.00;;
35150;SDS011;55720;51.972;4.624;2022-10-16T08:38:26;3.92;;;1.00;;
35150;SDS011;55720;51.972;4.624;2022-10-16T08:40:51;4.93;;;1.10;;
35150;SDS011;55720;51.972;4.624;2022-10-16T08:51:12;3.15;;;0.77;;
35150;SDS011;55720;51.972;4.624;2022-10-16T08:53:54;7.80;;;1.08;;
35150;SDS011;55720;51.972;4.624;2022-10-16T08:56:21;4.35;;;1.20;;
35150;SDS011;55720;51.972;4.624;2022-10-16T08:58:47;8.90;;;1.48;;
35150;SDS011;55720;51.972;4.624;2022-10-16T09:01:14;7.30;;;1.00;;
35150;SDS011;55720;51.972;4.624;2022-10-16T09:04:03;9.40;;;1.40;;
35150;SDS011;55720;51.972;4.624;2022-10-16T09:06:51;7.82;;;1.58;;
35150;SDS011;55720;51.972;4.624;2022-10-16T09:14:49;9.77;;;1.52;;
35150;SDS011;55720;51.972;4.624;2022-10-16T09:20:10;9.15;;;1.33;;
35150;SDS011;55720;51.972;4.624;2022-10-16T09:22:52;9.50;;;1.50;;
35150;SDS011;55720;51.972;4.624;2022-10-16T09:25:41;8.02;;;1.38;;
35150;SDS011;55720;51.972;4.624;2022-10-16T09:28:09;5.47;;;1.20;;
35150;SDS011;55720;51.972;4.624;2022-10-16T09:30:35;6.00;;;1.20;;
35150;SDS011;55720;51.972;4.624;2022-10-16T09:33:02;3.35;;;1.10;;
35150;SDS011;55720;51.972;4.624;2022-10-16T09:35:33;6.47;;;0.95;;
35150;SDS011;55720;51.972;4.624;2022-10-16T09:38:03;4.05;;;0.93;;
35150;SDS011;55720;51.972;4.624;2022-10-16T09:40:29;10.48;;;1.48;;
35150;SDS011;55720;51.972;4.624;2022-10-16T09:43:00;6.10;;;1.65;;
35150;SDS011;55720;51.972;4.624;2022-10-16T09:45:28;8.40;;;2.17;;
35150;SDS011;55720;51.972;4.624;2022-10-16T09:47:54;6.15;;;1.23;;
35150;SDS011;55720;51.972;4.624;2022-10-16T09:50:26;3.80;;;1.10;;
35150;SDS011;55720;51.972;4.624;2022-10-16T09:53:12;9.63;;;1.50;;
35150;SDS011;55720;51.972;4.624;2022-10-16T09:58:35;8.23;;;1.33;;
35150;SDS011;55720;51.972;4.624;2022-10-16T10:01:00;5.07;;;1.45;;
35150;SDS011;55720;51.972;4.624;2022-10-16T10:03:36;8.50;;;1.50;;
35150;SDS011;55720;51.972;4.624;2022-10-16T10:06:23;5.60;;;1.90;;
35150;SDS011;55720;51.972;4.624;2022-10-16T10:08:56;9.43;;;1.42;;
35150;SDS011;55720;51.972;4.624;2022-10-16T10:14:20;9.75;;;1.50;;
35150;SDS011;55720;51.972;4.624;2022-10-16T10:16:46;7.07;;;1.70;;
35150;SDS011;55720;51.972;4.624;2022-10-16T10:19:16;7.00;;;2.30;;
35150;SDS011;55720;51.972;4.624;2022-10-16T10:21:43;11.93;;;1.70;;
35150;SDS011;55720;51.972;4.624;2022-10-16T10:24:12;7.97;;;1.60;;
35150;SDS011;55720;51.972;4.624;2022-10-16T10:26:41;5.90;;;1.30;;
35150;SDS011;55720;51.972;4.624;2022-10-16T10:29:17;7.95;;;1.90;;
35150;SDS011;55720;51.972;4.624;2022-10-16T10:36:59;5.80;;;1.38;;
35150;SDS011;55720;51.972;4.624;2022-10-16T10:39:46;10.23;;;1.30;;
35150;SDS011;55720;51.972;4.624;2022-10-16T10:42:28;7.82;;;1.50;;
35150;SDS011;55720;51.972;4.624;2022-10-16T10:45:26;5.85;;;1.10;;
35150;SDS011;55720;51.972;4.624;2022-10-16T10:50:48;8.18;;;1.13;;
35150;SDS011;55720;51.972;4.624;2022-10-16T10:58:49;7.43;;;1.60;;
35150;SDS011;55720;51.972;4.624;2022-10-16T11:07:04;5.75;;;1.08;;
35150;SDS011;55720;51.972;4.624;2022-10-16T11:09:38;3.80;;;1.35;;
35150;SDS011;55720;51.972;4.624;2022-10-16T11:12:11;10.30;;;0.88;;
35150;SDS011;55720;51.972;4.624;2022-10-16T11:14:58;6.93;;;1.15;;
35150;SDS011;55720;51.972;4.624;2022-10-16T11:17:40;12.15;;;1.20;;
35150;SDS011;55720;51.972;4.624;2022-10-16T11:20:17;5.30;;;1.13;;
35150;SDS011;55720;51.972;4.624;2022-10-16T11:22:46;11.27;;;2.03;;
35150;SDS011;55720;51.972;4.624;2022-10-16T11:25:20;5.03;;;1.35;;
35150;SDS011;55720;51.972;4.624;2022-10-16T11:27:53;5.35;;;1.90;;
35150;SDS011;55720;51.972;4.624;2022-10-16T11:30:25;8.23;;;1.20;;
35150;SDS011;55720;51.972;4.624;2022-10-16T11:35:41;8.73;;;1.45;;
35150;SDS011;55720;51.972;4.624;2022-10-16T11:38:33;8.95;;;1.33;;
35150;SDS011;55720;51.972;4.624;2022-10-16T11:41:34;4.10;;;1.20;;
35150;SDS011;55720;51.972;4.624;2022-10-16T11:44:16;9.88;;;1.52;;
35150;SDS011;55720;51.972;4.624;2022-10-16T11:49:45;8.38;;;1.20;;
35150;SDS011;55720;51.972;4.624;2022-10-16T11:53:02;10.50;;;1.53;;
35150;SDS011;55720;51.972;4.624;2022-10-16T11:55:22;4.80;;;0.90;;
35150;SDS011;55720;51.972;4.624;2022-10-16T12:08:45;4.35;;;1.17;;
35150;SDS011;55720;51.972;4.624;2022-10-16T12:11:53;5.72;;;1.00;;
35150;SDS011;55720;51.972;4.624;2022-10-16T12:16:56;5.43;;;1.30;;
35150;SDS011;55720;51.972;4.624;2022-10-16T12:19:26;6.43;;;1.27;;
35150;SDS011;55720;51.972;4.624;2022-10-16T12:21:57;6.32;;;1.23;;
35150;SDS011;55720;51.972;4.624;2022-10-16T12:26:53;6.45;;;1.10;;
35150;SDS011;55720;51.972;4.624;2022-10-16T12:29:23;6.57;;;1.40;;
35150;SDS011;55720;51.972;4.624;2022-10-16T12:31:57;10.43;;;1.20;;
35150;SDS011;55720;51.972;4.624;2022-10-16T12:36:48;11.13;;;1.25;;
35150;SDS011;55720;51.972;4.624;2022-10-16T12:39:21;6.60;;;1.08;;
35150;SDS011;55720;51.972;4.624;2022-10-16T12:41:53;6.82;;;1.38;;
35150;SDS011;55720;51.972;4.624;2022-10-16T12:44:26;5.07;;;1.30;;
35150;SDS011;55720;51.972;4.624;2022-10-16T12:46:58;6.43;;;1.27;;
35150;SDS011;55720;51.972;4.624;2022-10-16T12:51:54;5.43;;;1.42;;
35150;SDS011;55720;51.972;4.624;2022-10-16T12:54:36;4.22;;;1.10;;
35150;SDS011;55720;51.972;4.624;2022-10-16T13:16:23;9.52;;;1.27;;
35150;SDS011;55720;51.972;4.624;2022-10-16T13:21:54;7.10;;;1.23;;
35150;SDS011;55720;51.972;4.624;2022-10-16T13:24:36;7.03;;;1.10;;
35150;SDS011;55720;51.972;4.624;2022-10-16T13:29:43;10.50;;;1.38;;
35150;SDS011;55720;51.972;4.624;2022-10-16T13:32:09;8.30;;;1.23;;
35150;SDS011;55720;51.972;4.624;2022-10-16T13:34:46;5.65;;;1.13;;
35150;SDS011;55720;51.972;4.624;2022-10-16T13:37:17;6.00;;;1.25;;
35150;SDS011;55720;51.972;4.624;2022-10-16T13:39:44;8.10;;;1.08;;
35150;SDS011;55720;51.972;4.624;2022-10-16T13:42:13;9.20;;;1.15;;
35150;SDS011;55720;51.972;4.624;2022-10-16T13:44:49;5.97;;;1.33;;
35150;SDS011;55720;51.972;4.624;2022-10-16T13:47:23;6.78;;;1.70;;
35150;SDS011;55720;51.972;4.624;2022-10-16T13:52:31;9.85;;;1.50;;
35150;SDS011;55720;51.972;4.624;2022-10-16T13:54:57;5.88;;;0.85;;
35150;SDS011;55720;51.972;4.624;2022-10-16T13:57:23;6.65;;;1.13;;
35150;SDS011;55720;51.972;4.624;2022-10-16T13:59:49;9.13;;;1.17;;
35150;SDS011;55720;51.972;4.624;2022-10-16T14:02:29;6.82;;;1.25;;
35150;SDS011;55720;51.972;4.624;2022-10-16T14:05:02;7.15;;;1.30;;
35150;SDS011;55720;51.972;4.624;2022-10-16T14:07:31;7.28;;;1.38;;
35150;SDS011;55720;51.972;4.624;2022-10-16T14:10:03;5.10;;;1.05;;
35150;SDS011;55720;51.972;4.624;2022-10-16T14:12:31;9.65;;;1.48;;
35150;SDS011;55720;51.972;4.624;2022-10-16T14:14:57;8.35;;;2.65;;
35150;SDS011;55720;51.972;4.624;2022-10-16T14:19:58;7.47;;;1.25;;
35150;SDS011;55720;51.972;4.624;2022-10-16T14:22:28;5.97;;;1.42;;
35150;SDS011;55720;51.972;4.624;2022-10-16T14:25:26;6.57;;;1.38;;
35150;SDS011;55720;51.972;4.624;2022-10-16T14:28:04;11.02;;;1.35;;
35150;SDS011;55720;51.972;4.624;2022-10-16T14:30:48;6.82;;;1.33;;
35150;SDS011;55720;51.972;4.624;2022-10-16T14:33:31;6.72;;;1.50;;
35150;SDS011;55720;51.972;4.624;2022-10-16T14:36:02;10.63;;;1.50;;
35150;SDS011;55720;51.972;4.624;2022-10-16T14:38:34;8.80;;;1.60;;
35150;SDS011;55720;51.972;4.624;2022-10-16T14:41:01;8.30;;;1.30;;
35150;SDS011;55720;51.972;4.624;2022-10-16T14:45:57;8.30;;;1.20;;
35150;SDS011;55720;51.972;4.624;2022-10-16T14:48:23;9.57;;;1.60;;
35150;SDS011;55720;51.972;4.624;2022-10-16T14:50:49;6.07;;;1.55;;
35150;SDS011;55720;51.972;4.624;2022-10-16T14:53:15;5.80;;;1.30;;
35150;SDS011;55720;51.972;4.624;2022-10-16T14:55:40;7.65;;;1.20;;
35150;SDS011;55720;51.972;4.624;2022-10-16T14:58:19;9.23;;;1.20;;
35150;SDS011;55720;51.972;4.624;2022-10-16T15:00:47;6.30;;;1.67;;
35150;SDS011;55720;51.972;4.624;2022-10-16T15:03:13;9.13;;;1.65;;
35150;SDS011;55720;51.972;4.624;2022-10-16T15:05:39;10.20;;;1.20;;
35150;SDS011;55720;51.972;4.624;2022-10-16T15:08:04;12.48;;;1.48;;
35150;SDS011;55720;51.972;4.624;2022-10-16T15:10:30;9.75;;;1.35;;
35150;SDS011;55720;51.972;4.624;2022-10-16T15:12:58;8.30;;;1.15;;
35150;SDS011;55720;51.972;4.624;2022-10-16T15:17:52;5.63;;;1.65;;
35150;SDS011;55720;51.972;4.624;2022-10-16T15:20:22;12.43;;;1.73;;
35150;SDS011;55720;51.972;4.624;2022-10-16T15:22:51;12.98;;;1.75;;
35150;SDS011;55720;51.972;4.624;2022-10-16T15:27:51;10.90;;;2.05;;
35150;SDS011;55720;51.972;4.624;2022-10-16T15:30:16;7.47;;;1.48;;
35150;SDS011;55720;51.972;4.624;2022-10-16T15:32:41;9.95;;;1.27;;
35150;SDS011;55720;51.972;4.624;2022-10-16T15:35:08;7.75;;;1.52;;
35150;SDS011;55720;51.972;4.624;2022-10-16T15:37:34;11.10;;;1.58;;
35150;SDS011;55720;51.972;4.624;2022-10-16T15:39:59;6.00;;;1.40;;
35150;SDS011;55720;51.972;4.624;2022-10-16T15:42:24;11.88;;;2.22;;
35150;SDS011;55720;51.972;4.624;2022-10-16T15:44:50;9.63;;;1.77;;
35150;SDS011;55720;51.972;4.624;2022-10-16T15:47:15;9.90;;;2.25;;
35150;SDS011;55720;51.972;4.624;2022-10-16T15:49:40;6.68;;;1.55;;
35150;SDS011;55720;51.972;4.624;2022-10-16T15:52:06;7.95;;;1.90;;
35150;SDS011;55720;51.972;4.624;2022-10-16T15:54:31;6.47;;;1.50;;
35150;SDS011;55720;51.972;4.624;2022-10-16T15:56:56;9.52;;;1.88;;
35150;SDS011;55720;51.972;4.624;2022-10-16T15:59:22;7.25;;;1.20;;
35150;SDS011;55720;51.972;4.624;2022-10-16T16:01:47;7.22;;;1.83;;
35150;SDS011;55720;51.972;4.624;2022-10-16T16:04:12;8.50;;;1.58;;
35150;SDS011;55720;51.972;4.624;2022-10-16T16:06:38;9.45;;;2.65;;
35150;SDS011;55720;51.972;4.624;2022-10-16T16:09:09;7.82;;;1.80;;
35150;SDS011;55720;51.972;4.624;2022-10-16T16:11:35;5.93;;;1.60;;
35150;SDS011;55720;51.972;4.624;2022-10-16T16:14:03;8.85;;;1.90;;
35150;SDS011;55720;51.972;4.624;2022-10-16T16:16:29;9.93;;;2.00;;
35150;SDS011;55720;51.972;4.624;2022-10-16T16:18:54;7.78;;;1.88;;
35150;SDS011;55720;51.972;4.624;2022-10-16T16:21:20;9.63;;;1.98;;
35150;SDS011;55720;51.972;4.624;2022-10-16T16:23:45;10.40;;;2.03;;
35150;SDS011;55720;51.972;4.624;2022-10-16T16:26:15;13.32;;;2.15;;
35150;SDS011;55720;51.972;4.624;2022-10-16T16:28:51;9.35;;;2.00;;
35150;SDS011;55720;51.972;4.624;2022-10-16T16:31:17;6.97;;;1.33;;
35150;SDS011;55720;51.972;4.624;2022-10-16T16:33:43;7.15;;;1.67;;
35150;SDS011;55720;51.972;4.624;2022-10-16T16:36:08;11.18;;;1.67;;
35150;SDS011;55720;51.972;4.624;2022-10-16T16:38:34;9.30;;;1.80;;
35150;SDS011;55720;51.972;4.624;2022-10-16T16:41:10;10.20;;;1.77;;
35150;SDS011;55720;51.972;4.624;2022-10-16T16:43:38;6.88;;;1.58;;
35150;SDS011;55720;51.972;4.624;2022-10-16T16:46:04;13.43;;;2.13;;
35150;SDS011;55720;51.972;4.624;2022-10-16T16:48:29;8.30;;;2.00;;
35150;SDS011;55720;51.972;4.624;2022-10-16T16:50:56;8.25;;;2.45;;
35150;SDS011;55720;51.972;4.624;2022-10-16T16:53:21;12.20;;;2.10;;
35150;SDS011;55720;51.972;4.624;2022-10-16T16:55:47;5.35;;;2.13;;
35150;SDS011;55720;51.972;4.624;2022-10-16T16:58:13;15.38;;;2.28;;
35150;SDS011;55720;51.972;4.624;2022-10-16T17:00:44;7.95;;;1.80;;